Chugwater, WY (82210)

12:43 AM MDT on September 05, 2015 (GMT -0600)
West Mariposa | | Change Station
CLOSE
Current Station
Personal Weather Station
Location: Wheatland, WY
Elevation: 4806 ft
Nearby Weather Stations

Elev 4806 ft 42.05 °N, 104.97 °W | Updated 31 seconds ago

Overcast
Overcast
64.8 °F
Feels Like 64.8 °F
N
0.0
Wind Variable Wind from SSW
Gusts 0.0 mph

Today
High -- | Low -- °F
--% Chance of Precip.
Yesterday
High -- | Low -- °F
Precip. -- in
6:28 AM 7:25 PM
Waning Gibbous, 51% visible
Pressure 29.70 in
Visibility 10.0 miles
Clouds Scattered Clouds 12000 ft
Dew Point 57 °F
Humidity 77%
Rainfall 0.00 in
Snow Depth Not available.
UV 0.0 out of 12
Pollen 9.90 out of 12
Air Quality Not available.
Flu Activity Not available.
METAR KTOR 050553Z AUTO 16005KT 10SM SCT120 19/12 A2987 RMK AO2 SLP057 60000 T01940117 10294 20194 56015
Pressure 29.70 in
Visibility 10.0 miles
Clouds Scattered Clouds 12000 ft
Dew Point 57 °F
Humidity 77%
Rainfall 0.00 in
Snow Depth Not available.
UV 0.0 out of 12
Pollen 9.90 out of 12
Air Quality Not available.
Flu Activity Not available.
METAR KTOR 050553Z AUTO 16005KT 10SM SCT120 19/12 A2987 RMK AO2 SLP057 60000 T01940117 10294 20194 56015

10-Day Weather Forecast

×

Almanac

Astronomy

Sep. 05, 2015 Rise Set
Actual Time
Civil Twilight
Nautical Twilight
Astronomical Twilight
Moon
Length of Visible Light
Length of Day
Tomorrow will be .
, % of the Moon is Illuminated

Today's Extremes

State Highs State Lows

Community

WunderPhotos

Upload Photos

1,852,430 photos uploaded!

WunderBlogs® & News

Nearby

Air Quality

  Air Quality AQ Index Pollutant
Not available.

Snow Depth

Station Depth Elevation

Earthquake Activity

City Distance Mag. Time & Date
Minimum magnitude displayed is 2.5.

Coastal Water Temperatures

Place Temperature

Stations

Nearby Weather Stations

Station Location Temp. Windchill Dew Point Humidity Wind Precip. Elev Updated Type